Terminal Aerodrome Forecast
Issued by NWS Nashville, TN

Home | Current Version | Previous Version | Text Only | Print | Product List | Glossary On
Versions: 1 2 3 4 5 6 7 8 9 10 11 12 13 14 15 16 17 18 19 20 21 22 23 24 25
000
FTUS44 KOHX 251700
TAFCSV
TAF
KCSV 251729Z 2518/2618 19008G16KT P6SM SCT100 SCT200
     FM252200 22008G14KT P6SM SCT040 BKN100
      TEMPO 2522/2602 -SHRA BKN030
     FM260200 27008KT 4SM -SHRA BR SCT005 OVC012
      TEMPO 2609/2612 -RASN
     FM261200 32011KT 5SM -SN BR OVC006
     FM261600 31011KT P6SM BKN015=

USA.gov is the U.S. government's official web portal to all federal, state and local government web resources and services.